createdAt,value
2022-12-31T00:01:15.180Z,4.94
2022-12-31T00:04:17.904Z,4.86
2022-12-31T00:07:20.321Z,4.88
2022-12-31T00:10:23.012Z,4.94
2022-12-31T00:13:25.284Z,4.82
2022-12-31T00:16:33.869Z,4.87
2022-12-31T00:19:36.202Z,4.70
2022-12-31T00:22:38.774Z,4.86
2022-12-31T00:25:41.102Z,4.83
2022-12-31T00:28:44.757Z,4.79
2022-12-31T00:31:47.073Z,4.85
2022-12-31T00:34:49.709Z,4.69
2022-12-31T00:37:53.291Z,4.80
2022-12-31T00:40:55.895Z,4.77
2022-12-31T00:43:58.270Z,4.87
2022-12-31T00:47:00.847Z,4.83
2022-12-31T00:50:03.465Z,4.86
2022-12-31T00:53:06.098Z,4.89
2022-12-31T00:56:13.272Z,4.89
2022-12-31T00:59:15.903Z,4.76
2022-12-31T01:02:18.488Z,4.80
2022-12-31T01:05:21.293Z,4.70
2022-12-31T01:08:23.679Z,4.68
2022-12-31T01:11:29.519Z,4.69
2022-12-31T01:14:33.870Z,4.66
2022-12-31T01:17:36.548Z,4.72
2022-12-31T01:20:41.748Z,4.79
2022-12-31T01:23:44.778Z,4.77
2022-12-31T01:26:47.661Z,4.67
2022-12-31T01:29:50.278Z,4.81
2022-12-31T01:32:52.653Z,4.81
2022-12-31T01:35:55.273Z,4.80
2022-12-31T01:38:59.580Z,4.83
2022-12-31T01:42:02.217Z,4.70
2022-12-31T01:45:10.944Z,4.74
2022-12-31T01:48:17.140Z,4.74
2022-12-31T01:51:21.025Z,4.74
2022-12-31T01:54:25.938Z,4.72
2022-12-31T01:57:28.686Z,4.74
2022-12-31T02:00:32.698Z,4.80
2022-12-31T02:03:36.438Z,4.81
2022-12-31T02:06:47.487Z,4.79
2022-12-31T02:09:50.782Z,4.73
2022-12-31T02:12:53.248Z,4.72
2022-12-31T02:16:25.316Z,4.72
2022-12-31T02:20:01.497Z,4.76
2022-12-31T02:23:29.183Z,4.82
2022-12-31T02:26:44.442Z,4.86
2022-12-31T02:30:17.231Z,4.80
2022-12-31T02:33:38.936Z,4.85
2022-12-31T02:36:46.766Z,4.85
2022-12-31T02:39:49.525Z,4.78
2022-12-31T02:42:55.635Z,4.81
2022-12-31T02:46:08.309Z,4.78
2022-12-31T02:49:20.659Z,4.91
2022-12-31T02:52:38.934Z,4.94
2022-12-31T02:56:16.791Z,4.91
2022-12-31T02:59:53.870Z,4.91
2022-12-31T03:02:58.772Z,4.82
2022-12-31T03:06:04.450Z,4.86
2022-12-31T03:09:13.227Z,4.93
2022-12-31T03:12:35.078Z,4.87
2022-12-31T03:15:38.952Z,4.91
2022-12-31T03:19:00.108Z,4.93
2022-12-31T03:22:21.501Z,4.94
2022-12-31T03:25:35.952Z,4.91
2022-12-31T03:28:40.547Z,4.87
2022-12-31T03:31:42.871Z,4.90
2022-12-31T03:34:45.528Z,4.91
2022-12-31T03:37:49.392Z,4.97
2022-12-31T03:40:53.693Z,4.95
2022-12-31T03:43:56.025Z,4.89
2022-12-31T03:46:58.610Z,4.96
2022-12-31T03:50:00.962Z,4.98
2022-12-31T03:53:03.683Z,4.97
2022-12-31T03:56:06.270Z,4.97
2022-12-31T03:59:08.904Z,4.98
2022-12-31T04:02:11.543Z,4.87
2022-12-31T04:05:14.909Z,4.87
2022-12-31T04:08:17.238Z,4.95
2022-12-31T04:11:21.140Z,4.96
2022-12-31T04:14:23.761Z,5.01
2022-12-31T04:17:27.057Z,4.88
2022-12-31T04:20:29.395Z,4.92
2022-12-31T04:23:32.002Z,4.94
2022-12-31T04:26:34.698Z,4.90
2022-12-31T04:29:37.881Z,5.00
2022-12-31T04:32:40.362Z,5.01
2022-12-31T04:35:42.951Z,4.91
2022-12-31T04:38:45.280Z,4.96
2022-12-31T04:41:48.027Z,4.87
2022-12-31T04:44:50.326Z,4.92
2022-12-31T04:47:52.940Z,4.81
2022-12-31T04:50:55.272Z,4.87
2022-12-31T04:53:58.508Z,4.81
2022-12-31T04:57:00.818Z,4.85
2022-12-31T05:00:03.984Z,4.89
2022-12-31T05:03:06.360Z,4.85
2022-12-31T05:06:14.712Z,4.81
2022-12-31T05:09:17.168Z,4.83
2022-12-31T05:12:20.637Z,4.80
2022-12-31T05:15:22.974Z,4.79
2022-12-31T05:18:25.625Z,4.77
2022-12-31T05:21:27.963Z,4.87
2022-12-31T05:24:30.580Z,4.77
2022-12-31T05:27:33.730Z,4.83
2022-12-31T05:30:37.317Z,4.75
2022-12-31T05:33:39.892Z,4.86
2022-12-31T05:36:42.560Z,4.86
2022-12-31T05:39:44.891Z,4.80
2022-12-31T05:42:47.721Z,4.87
2022-12-31T05:45:50.069Z,4.71
2022-12-31T05:48:52.717Z,4.78
2022-12-31T05:51:55.011Z,4.79
2022-12-31T05:54:57.680Z,4.73
2022-12-31T05:58:00.043Z,4.81
2022-12-31T06:01:02.932Z,4.85
2022-12-31T06:04:06.689Z,4.79
2022-12-31T06:07:08.990Z,4.84
2022-12-31T06:10:11.619Z,4.81
2022-12-31T06:13:13.926Z,4.85
2022-12-31T06:16:16.582Z,4.86
2022-12-31T06:19:18.954Z,4.78
2022-12-31T06:22:21.567Z,4.85
2022-12-31T06:25:23.900Z,4.92
2022-12-31T06:28:26.716Z,4.91
2022-12-31T06:31:29.882Z,4.81
2022-12-31T06:34:32.529Z,4.82
2022-12-31T06:37:35.128Z,4.89
2022-12-31T06:40:38.010Z,4.72
2022-12-31T06:43:42.092Z,4.74
2022-12-31T06:46:44.833Z,4.72
2022-12-31T06:49:47.270Z,4.69
2022-12-31T06:52:49.917Z,4.73
2022-12-31T06:55:52.420Z,4.70
2022-12-31T06:58:55.978Z,4.80
2022-12-31T07:02:10.241Z,4.85
2022-12-31T07:05:27.877Z,4.84
2022-12-31T07:08:48.770Z,4.92
2022-12-31T07:12:00.688Z,4.93
2022-12-31T07:15:10.323Z,4.96
2022-12-31T07:18:38.079Z,4.96
2022-12-31T07:21:41.521Z,5.07
2022-12-31T07:24:45.143Z,5.04
2022-12-31T07:27:59.608Z,5.15
2022-12-31T07:31:09.653Z,5.14
2022-12-31T07:34:11.888Z,5.09
2022-12-31T07:37:37.696Z,5.04
2022-12-31T07:41:11.270Z,5.08
2022-12-31T07:44:38.341Z,5.06
2022-12-31T07:47:41.046Z,5.05
2022-12-31T07:50:44.011Z,4.95
2022-12-31T07:53:46.448Z,4.97
2022-12-31T07:56:50.417Z,5.11
2022-12-31T08:00:03.432Z,5.11
2022-12-31T08:03:23.862Z,5.08
2022-12-31T08:07:02.034Z,5.19
2022-12-31T08:10:17.971Z,5.26
2022-12-31T08:13:21.257Z,5.28
2022-12-31T08:16:24.969Z,5.21
2022-12-31T08:19:32.641Z,5.28
2022-12-31T08:22:37.861Z,5.33
2022-12-31T08:25:52.666Z,5.36
2022-12-31T08:28:54.954Z,5.39
2022-12-31T08:32:09.793Z,5.40
2022-12-31T08:35:27.336Z,5.37
2022-12-31T08:38:53.330Z,5.44
2022-12-31T08:41:58.793Z,5.47
2022-12-31T08:45:23.673Z,5.44
2022-12-31T08:48:36.445Z,5.47
2022-12-31T08:51:39.452Z,5.62
2022-12-31T08:54:42.201Z,5.64
2022-12-31T08:58:05.025Z,5.67
2022-12-31T09:01:08.597Z,5.79
2022-12-31T09:04:21.364Z,5.83
2022-12-31T09:07:38.001Z,5.90
2022-12-31T09:10:54.045Z,5.97
2022-12-31T09:14:08.465Z,6.00
2022-12-31T09:17:38.680Z,6.11
2022-12-31T09:20:43.302Z,6.17
2022-12-31T09:23:47.188Z,6.14
2022-12-31T09:26:49.477Z,6.14
2022-12-31T09:30:08.601Z,6.17
2022-12-31T09:33:33.910Z,6.16
2022-12-31T09:36:46.365Z,6.11
2022-12-31T09:39:49.465Z,6.05
2022-12-31T09:43:10.106Z,6.16
2022-12-31T09:46:50.420Z,6.14
2022-12-31T09:50:18.238Z,6.34
2022-12-31T09:53:29.597Z,6.48
2022-12-31T09:57:02.104Z,6.60
2022-12-31T10:00:20.302Z,6.71
2022-12-31T10:03:29.057Z,6.80
2022-12-31T10:07:04.560Z,6.81
2022-12-31T10:10:18.807Z,6.78
2022-12-31T10:13:33.951Z,6.80
2022-12-31T10:17:13.989Z,6.87
2022-12-31T10:20:22.130Z,6.81
2022-12-31T10:23:49.471Z,6.90
2022-12-31T10:27:18.481Z,6.81
2022-12-31T10:30:24.143Z,6.91
2022-12-31T10:33:44.008Z,6.88
2022-12-31T10:37:07.598Z,6.80
2022-12-31T10:40:36.441Z,6.89
2022-12-31T10:44:05.032Z,6.99
2022-12-31T10:47:44.412Z,6.98
2022-12-31T10:51:20.844Z,6.99
2022-12-31T10:54:32.593Z,6.99
2022-12-31T10:57:58.630Z,6.98
2022-12-31T11:01:10.291Z,7.00
2022-12-31T11:04:12.910Z,7.00
2022-12-31T11:07:41.929Z,7.05
2022-12-31T11:10:53.424Z,7.00
2022-12-31T11:14:28.408Z,7.09
2022-12-31T11:17:36.926Z,7.05
2022-12-31T11:21:00.813Z,7.01
2022-12-31T11:24:25.428Z,6.99
2022-12-31T11:27:53.245Z,6.94
2022-12-31T11:31:28.826Z,6.89
2022-12-31T11:34:37.342Z,7.01
2022-12-31T11:37:48.733Z,7.03
2022-12-31T11:41:39.941Z,7.05
2022-12-31T11:44:49.207Z,7.10
2022-12-31T11:48:30.143Z,7.11
2022-12-31T11:51:50.622Z,7.18
2022-12-31T11:55:18.046Z,7.28
2022-12-31T11:58:20.815Z,7.28
2022-12-31T12:01:59.367Z,7.36
2022-12-31T12:05:10.695Z,7.32
2022-12-31T12:08:15.502Z,7.34
2022-12-31T12:11:22.766Z,7.43
2022-12-31T12:14:33.819Z,7.43
2022-12-31T12:17:37.221Z,7.42
2022-12-31T12:20:41.293Z,7.42
2022-12-31T12:24:14.493Z,7.46
2022-12-31T12:27:22.449Z,7.36
2022-12-31T12:30:27.510Z,7.48
2022-12-31T12:33:40.984Z,7.49
2022-12-31T12:36:47.841Z,7.60
2022-12-31T12:40:29.816Z,7.69
2022-12-31T12:43:37.763Z,7.62
2022-12-31T12:46:53.093Z,7.54
2022-12-31T12:49:56.232Z,7.60
2022-12-31T12:53:30.781Z,7.52
2022-12-31T12:56:36.156Z,7.58
2022-12-31T13:00:04.378Z,7.69
2022-12-31T13:03:30.014Z,7.72
2022-12-31T13:06:57.867Z,7.76
2022-12-31T13:10:06.274Z,7.68
2022-12-31T13:13:35.423Z,7.73
2022-12-31T13:16:59.678Z,7.61
2022-12-31T13:20:26.280Z,7.76
2022-12-31T13:23:51.697Z,7.82
2022-12-31T13:27:20.117Z,7.90
2022-12-31T13:30:31.304Z,7.95
2022-12-31T13:33:39.225Z,7.96
2022-12-31T13:36:44.956Z,7.96
2022-12-31T13:39:57.815Z,7.91
2022-12-31T13:43:14.596Z,7.93
2022-12-31T13:46:41.710Z,7.97
2022-12-31T13:49:51.597Z,7.89
2022-12-31T13:53:04.735Z,7.93
2022-12-31T13:56:15.654Z,7.87
2022-12-31T13:59:31.612Z,7.90
2022-12-31T14:02:45.036Z,7.89
2022-12-31T14:06:02.459Z,7.86
2022-12-31T14:09:06.710Z,7.91
2022-12-31T14:12:31.253Z,7.91
2022-12-31T14:15:44.448Z,7.91
2022-12-31T14:19:18.175Z,7.86
2022-12-31T14:22:36.865Z,7.93
2022-12-31T14:25:57.475Z,7.97
2022-12-31T14:29:08.994Z,7.92
2022-12-31T14:32:49.013Z,7.94
2022-12-31T14:36:15.858Z,7.94
2022-12-31T14:39:34.670Z,7.95
2022-12-31T14:43:03.085Z,7.96
2022-12-31T14:46:21.321Z,8.00
2022-12-31T14:50:23.825Z,7.98
2022-12-31T14:53:28.035Z,7.94
2022-12-31T14:56:45.021Z,7.86
2022-12-31T14:59:58.916Z,7.84
2022-12-31T15:03:25.317Z,7.78
2022-12-31T15:06:56.145Z,7.74
2022-12-31T15:10:23.618Z,7.72
2022-12-31T15:13:26.237Z,7.70
2022-12-31T15:16:48.666Z,7.66
2022-12-31T15:20:30.769Z,7.66
2022-12-31T15:23:38.471Z,7.64
2022-12-31T15:27:07.820Z,7.62
2022-12-31T15:30:46.591Z,7.64
2022-12-31T15:33:55.764Z,7.65
2022-12-31T15:37:01.305Z,7.75
2022-12-31T15:40:25.036Z,7.76
2022-12-31T15:43:35.898Z,7.71
2022-12-31T15:46:41.509Z,7.78
2022-12-31T15:49:47.519Z,7.76
2022-12-31T15:52:59.998Z,7.88
2022-12-31T15:56:03.244Z,7.93
2022-12-31T15:59:12.925Z,7.99
2022-12-31T16:02:25.778Z,8.03
2022-12-31T16:05:28.617Z,8.07
2022-12-31T16:08:35.480Z,8.11
2022-12-31T16:11:41.781Z,8.13
2022-12-31T16:14:46.623Z,8.18
2022-12-31T16:18:02.772Z,8.25
2022-12-31T16:21:05.634Z,8.27
2022-12-31T16:24:32.164Z,8.20
2022-12-31T16:27:35.954Z,8.13
2022-12-31T16:30:38.600Z,8.17
2022-12-31T16:33:40.925Z,8.13
2022-12-31T16:36:54.239Z,8.15
2022-12-31T16:39:56.596Z,8.16
2022-12-31T16:42:59.979Z,8.14
2022-12-31T16:46:10.456Z,8.17
2022-12-31T16:49:20.270Z,8.17
2022-12-31T16:52:44.556Z,8.13
2022-12-31T16:55:55.031Z,8.11
2022-12-31T16:59:04.046Z,8.08
2022-12-31T17:02:23.011Z,8.00
2022-12-31T17:05:27.050Z,7.98
2022-12-31T17:08:40.069Z,7.97
2022-12-31T17:11:48.275Z,7.96
2022-12-31T17:14:51.787Z,7.92
2022-12-31T17:18:01.248Z,7.94
2022-12-31T17:21:09.718Z,7.89
2022-12-31T17:24:13.576Z,7.85
2022-12-31T17:27:16.842Z,7.81
2022-12-31T17:30:37.024Z,7.84
2022-12-31T17:33:39.861Z,7.81
2022-12-31T17:36:54.421Z,7.82
2022-12-31T17:43:25.109Z,7.65
2022-12-31T17:46:29.853Z,7.65
2022-12-31T17:49:33.267Z,7.65
2022-12-31T17:52:35.906Z,7.61
2022-12-31T17:55:38.920Z,7.59
2022-12-31T17:58:52.485Z,7.52
2022-12-31T18:01:57.353Z,7.51
2022-12-31T18:05:00.007Z,7.47
2022-12-31T18:08:02.431Z,7.45
2022-12-31T18:11:05.388Z,7.43
2022-12-31T18:14:08.389Z,7.37
2022-12-31T18:17:16.992Z,7.36
2022-12-31T18:20:19.531Z,7.35
2022-12-31T18:23:35.270Z,7.34
2022-12-31T18:26:37.584Z,7.39
2022-12-31T18:29:40.194Z,7.46
2022-12-31T18:32:44.308Z,7.47
2022-12-31T18:36:08.330Z,7.47
2022-12-31T18:39:09.876Z,7.42
2022-12-31T18:42:14.229Z,7.46
2022-12-31T18:45:19.451Z,7.47
2022-12-31T18:48:22.136Z,7.43
2022-12-31T18:51:31.248Z,7.51
2022-12-31T18:54:35.835Z,7.48
2022-12-31T18:57:38.144Z,7.48
2022-12-31T19:00:41.117Z,7.44
2022-12-31T19:03:43.452Z,7.53
2022-12-31T19:06:48.507Z,7.56
2022-12-31T19:09:56.446Z,7.58
2022-12-31T19:13:01.129Z,7.60
2022-12-31T19:16:03.608Z,7.55
2022-12-31T19:19:08.667Z,7.50
2022-12-31T19:22:15.443Z,7.44
2022-12-31T19:25:21.644Z,7.39
2022-12-31T19:28:27.437Z,7.38
2022-12-31T19:31:30.082Z,7.34
2022-12-31T19:34:32.503Z,7.36
2022-12-31T19:37:35.174Z,7.31
2022-12-31T19:40:37.526Z,7.27
2022-12-31T19:43:40.140Z,7.24
2022-12-31T19:46:42.625Z,7.18
2022-12-31T19:49:45.296Z,7.11
2022-12-31T19:52:48.858Z,7.17
2022-12-31T19:55:52.527Z,7.17
2022-12-31T19:58:54.848Z,7.14
2022-12-31T20:01:57.625Z,7.01
2022-12-31T20:05:00.382Z,7.04
2022-12-31T20:08:02.745Z,6.95
2022-12-31T20:11:11.080Z,6.98
2022-12-31T20:14:13.449Z,6.99
2022-12-31T20:17:16.165Z,6.96
2022-12-31T20:20:18.643Z,6.90
2022-12-31T20:23:21.222Z,6.96
2022-12-31T20:26:24.618Z,6.95
2022-12-31T20:29:27.376Z,6.97
2022-12-31T20:32:29.666Z,7.01
2022-12-31T20:35:32.379Z,7.00
2022-12-31T20:38:35.086Z,7.03
2022-12-31T20:41:37.718Z,7.01
2022-12-31T20:44:40.092Z,6.95
2022-12-31T20:47:42.813Z,6.92
2022-12-31T20:50:54.422Z,6.98
2022-12-31T20:53:59.764Z,6.95
2022-12-31T20:57:02.167Z,6.90
2022-12-31T21:00:05.484Z,6.78
2022-12-31T21:03:23.796Z,6.81
2022-12-31T21:06:31.253Z,6.76
2022-12-31T21:09:33.919Z,6.70
2022-12-31T21:12:46.446Z,6.72
2022-12-31T21:15:53.884Z,6.73
2022-12-31T21:18:56.582Z,6.68
2022-12-31T21:21:58.914Z,6.60
2022-12-31T21:25:02.557Z,6.57
2022-12-31T21:28:05.152Z,6.55
2022-12-31T21:31:08.875Z,6.53
2022-12-31T21:34:11.384Z,6.50
2022-12-31T21:37:15.051Z,6.51
2022-12-31T21:40:17.481Z,6.49
2022-12-31T21:43:20.449Z,6.46
2022-12-31T21:46:23.142Z,6.43
2022-12-31T21:49:25.757Z,6.34
2022-12-31T21:52:30.422Z,6.40
2022-12-31T21:55:52.438Z,6.35
2022-12-31T21:59:15.309Z,6.32
2022-12-31T22:02:36.831Z,6.22
2022-12-31T22:05:46.907Z,6.30
2022-12-31T22:08:52.493Z,6.19
2022-12-31T22:11:55.149Z,6.16
2022-12-31T22:15:15.256Z,6.21
2022-12-31T22:18:18.949Z,6.20
2022-12-31T22:21:23.444Z,6.15
2022-12-31T22:24:26.104Z,6.16
2022-12-31T22:27:30.058Z,6.16
2022-12-31T22:30:34.320Z,6.08
2022-12-31T22:33:36.748Z,6.12
2022-12-31T22:36:39.383Z,6.10
2022-12-31T22:39:44.193Z,6.14
2022-12-31T22:42:47.729Z,6.03
2022-12-31T22:45:50.098Z,6.12
2022-12-31T22:48:54.522Z,6.12
2022-12-31T22:52:00.739Z,6.11
2022-12-31T22:55:06.045Z,6.05
2022-12-31T22:58:08.354Z,6.13
2022-12-31T23:01:22.950Z,6.16
2022-12-31T23:04:25.344Z,6.19
2022-12-31T23:07:28.002Z,6.07
2022-12-31T23:10:48.842Z,6.12
2022-12-31T23:14:09.940Z,6.08
2022-12-31T23:17:41.583Z,6.03
2022-12-31T23:21:03.210Z,5.99
2022-12-31T23:24:07.776Z,6.00
2022-12-31T23:27:14.431Z,5.97
2022-12-31T23:30:16.941Z,6.04
2022-12-31T23:33:25.462Z,6.04
2022-12-31T23:36:27.816Z,6.00
2022-12-31T23:39:30.835Z,6.03
2022-12-31T23:42:33.241Z,5.98
2022-12-31T23:45:36.785Z,6.08
2022-12-31T23:48:39.236Z,6.08
2022-12-31T23:51:41.903Z,6.08
2022-12-31T23:54:44.259Z,6.03
2022-12-31T23:57:46.890Z,6.11
